Time;durP1;ratioP1;P1;durP2;ratioP2;P2;SDS_P1;SDS_P2;PMS_P1;PMS_P2;Temp;Humidity;BMP_temperature;BMP_pressure;BME280_temperature;BME280_humidity;BME280_pressure;Samples;Min_cycle;Max_cycle;Signal;HPM_P1;HPM_P2
2023/06/30 00:00:12;;;;;;;8.00;6.50;;;;;;;17.27;71.76;96451.63;112029;1240;22738;-82
2023/06/30 00:03:00;;;;;;;7.20;6.30;;;;;;;17.24;71.80;96449.98;112040;1244;22518;-82
2023/06/30 00:05:30;;;;;;;6.70;6.00;;;;;;;17.21;71.84;96449.31;112038;1244;22659;-82
2023/06/30 00:07:58;;;;;;;6.80;6.10;;;;;;;17.19;71.91;96451.30;112014;1244;22570;-82
2023/06/30 00:10:28;;;;;;;7.70;6.00;;;;;;;17.19;71.90;96451.81;111989;1244;30362;-82
2023/06/30 00:12:56;;;;;;;7.90;6.50;;;;;;;17.17;72.06;96446.73;112013;1244;22513;-82
2023/06/30 00:15:25;;;;;;;11.10;6.80;;;;;;;17.14;72.02;96441.67;112039;1244;24220;-82
2023/06/30 00:17:53;;;;;;;8.90;6.40;;;;;;;17.12;72.12;96439.98;112023;1239;25226;-82
2023/06/30 00:20:23;;;;;;;10.30;6.40;;;;;;;17.10;72.05;96436.10;112006;1244;23501;-82
2023/06/30 00:22:52;;;;;;;8.70;6.70;;;;;;;17.09;72.14;96439.33;111996;1240;26406;-82
2023/06/30 00:25:21;;;;;;;8.50;6.20;;;;;;;17.07;72.19;96439.94;112037;1244;22541;-82
2023/06/30 00:27:50;;;;;;;7.60;6.50;;;;;;;17.04;72.27;96436.72;112031;1243;24190;-82
2023/06/30 00:30:18;;;;;;;7.50;6.50;;;;;;;17.02;72.16;96435.70;112024;1244;22527;-82
2023/06/30 00:32:46;;;;;;;8.60;6.60;;;;;;;17.00;72.28;96436.21;112048;1244;22498;-82
2023/06/30 00:35:15;;;;;;;6.50;5.80;;;;;;;17.00;72.31;96436.27;112015;1244;24214;-82
2023/06/30 00:37:44;;;;;;;8.70;6.60;;;;;;;16.99;72.32;96433.27;112012;1244;22502;-82
2023/06/30 00:40:15;;;;;;;6.70;5.90;;;;;;;16.98;72.32;96433.39;112029;1244;22509;-82
2023/06/30 00:42:46;;;;;;;8.70;6.70;;;;;;;16.98;72.30;96435.22;111996;1244;22557;-82
2023/06/30 00:45:15;;;;;;;7.00;5.90;;;;;;;16.97;72.35;96432.58;112033;1244;22502;-82
2023/06/30 00:47:43;;;;;;;8.60;6.40;;;;;;;16.97;72.35;96433.75;112044;1244;22510;-82
2023/06/30 00:50:13;;;;;;;8.10;6.20;;;;;;;16.98;72.48;96433.52;111984;1244;22615;-82
2023/06/30 00:52:48;;;;;;;10.20;6.80;;;;;;;16.97;72.40;96430.50;112040;1244;22516;-82
2023/06/30 00:55:17;;;;;;;6.70;6.00;;;;;;;16.96;72.43;96425.71;112025;1244;22562;-82
2023/06/30 00:57:46;;;;;;;8.60;6.70;;;;;;;16.94;72.41;96423.27;112017;1244;22523;-82
2023/06/30 01:00:16;;;;;;;6.80;5.90;;;;;;;16.92;72.45;96423.14;112069;1244;22618;-82
2023/06/30 01:02:55;;;;;;;7.40;6.60;;;;;;;16.91;72.43;96421.25;112029;1244;22519;-82
2023/06/30 01:05:28;;;;;;;7.70;6.20;;;;;;;16.87;72.44;96417.50;112031;1244;26388;-82
2023/06/30 01:08:06;;;;;;;7.70;6.30;;;;;;;16.84;72.50;96416.26;112008;1244;22502;-82
2023/06/30 01:10:35;;;;;;;8.10;6.40;;;;;;;16.81;72.47;96415.14;112009;1244;22518;-82
2023/06/30 01:13:05;;;;;;;8.00;6.10;;;;;;;16.78;72.47;96412.40;112001;1244;22497;-82
2023/06/30 01:15:34;;;;;;;7.80;6.30;;;;;;;16.73;72.47;96410.61;112049;1244;25338;-82
2023/06/30 01:18:04;;;;;;;8.00;6.50;;;;;;;16.69;72.56;96415.20;112026;1244;22520;-81
2023/06/30 01:20:34;;;;;;;6.70;6.00;;;;;;;16.66;72.59;96408.83;111984;1244;37105;-82
2023/06/30 01:23:10;;;;;;;7.50;6.50;;;;;;;16.62;72.66;96405.42;112021;1244;22509;-81
2023/06/30 01:25:42;;;;;;;7.70;6.70;;;;;;;16.58;72.72;96404.09;112016;1244;22519;-82
2023/06/30 01:28:10;;;;;;;;;;;;;;;16.54;72.79;96401.79;112013;1244;22533;-82
2023/06/30 01:30:39;;;;;;;7.70;6.20;;;;;;;16.51;72.95;96400.89;111999;1244;22621;-82
2023/06/30 01:33:08;;;;;;;6.60;5.80;;;;;;;16.50;73.11;96400.04;112020;1244;22519;-82
2023/06/30 01:35:39;;;;;;;6.80;6.20;;;;;;;16.53;73.12;96397.45;112021;1244;23329;-82
2023/06/30 01:38:08;;;;;;;7.70;6.20;;;;;;;16.53;73.13;96396.79;112042;1244;22529;-82
2023/06/30 01:40:36;;;;;;;6.80;6.00;;;;;;;16.53;73.20;96400.47;111968;1244;67005;-82
2023/06/30 01:43:06;;;;;;;8.50;6.50;;;;;;;16.52;73.18;96397.73;112005;1244;22591;-82
2023/06/30 01:45:36;;;;;;;8.70;6.20;;;;;;;16.52;73.19;96400.16;112016;1237;22536;-82
2023/06/30 01:48:05;;;;;;;7.40;6.60;;;;;;;16.50;73.23;96400.95;112002;1229;22516;-81
2023/06/30 01:50:35;;;;;;;10.10;6.60;;;;;;;16.48;73.18;96402.02;112075;1240;22524;-81
2023/06/30 01:53:03;;;;;;;6.60;5.90;;;;;;;16.46;73.19;96401.83;112010;1244;23748;-82
2023/06/30 01:55:33;;;;;;;9.10;7.10;;;;;;;16.45;73.26;96401.12;112040;1241;22511;-82
2023/06/30 01:58:01;;;;;;;9.10;6.80;;;;;;;16.44;73.23;96404.36;112044;1244;22524;-82
2023/06/30 02:00:30;;;;;;;7.80;6.80;;;;;;;16.44;73.27;96400.52;112042;1244;24336;-82
2023/06/30 02:02:59;;;;;;;7.30;6.30;;;;;;;16.42;73.24;96400.92;112030;1244;22528;-82
2023/06/30 02:05:27;;;;;;;8.80;6.40;;;;;;;16.40;73.23;96400.45;111991;1236;22573;-82
2023/06/30 02:07:56;;;;;;;9.10;6.80;;;;;;;16.39;73.22;96400.02;112065;1240;24192;-82
2023/06/30 02:10:25;;;;;;;8.80;7.30;;;;;;;16.38;73.21;96398.48;112049;1244;22515;-82
2023/06/30 02:12:53;;;;;;;6.70;6.00;;;;;;;16.36;73.22;96393.55;112053;1244;24359;-81
2023/06/30 02:15:22;;;;;;;7.30;6.50;;;;;;;16.35;73.27;96392.90;112043;1241;22505;-81
2023/06/30 02:17:50;;;;;;;8.40;6.50;;;;;;;16.33;73.28;96388.87;112006;1244;22524;-81
2023/06/30 02:20:19;;;;;;;7.40;5.90;;;;;;;16.32;73.26;96391.19;112013;1244;22977;-81
2023/06/30 02:22:48;;;;;;;7.60;6.50;;;;;;;16.31;73.27;96386.17;112018;1244;22484;-82
2023/06/30 02:25:17;;;;;;;10.00;6.70;;;;;;;16.32;73.38;96382.46;112008;1244;22586;-82
2023/06/30 02:27:45;;;;;;;7.30;6.40;;;;;;;16.33;73.37;96382.83;112006;1244;22499;-82
2023/06/30 02:30:15;;;;;;;6.80;6.10;;;;;;;16.30;73.35;96383.17;111938;1244;55047;-81
2023/06/30 02:32:44;;;;;;;7.50;6.00;;;;;;;16.29;73.37;96383.42;112013;1244;25441;-82
2023/06/30 02:35:13;;;;;;;9.30;6.50;;;;;;;16.29;73.36;96383.27;112022;1241;22500;-81
2023/06/30 02:37:46;;;;;;;9.50;6.80;;;;;;;16.31;73.43;96379.58;112044;1244;25263;-82
2023/06/30 02:40:14;;;;;;;8.50;6.50;;;;;;;16.29;73.40;96378.61;111983;1244;39755;-81
2023/06/30 02:42:43;;;;;;;8.20;7.00;;;;;;;16.28;73.44;96381.48;112020;1244;22522;-82
2023/06/30 02:45:12;;;;;;;7.80;7.00;;;;;;;16.28;73.45;96379.84;112037;1244;22516;-81
2023/06/30 02:47:40;;;;;;;7.70;6.40;;;;;;;16.27;73.46;96382.05;112024;1244;22542;-82
2023/06/30 02:50:10;;;;;;;8.10;6.50;;;;;;;16.26;73.40;96382.77;112000;1244;40222;-82
2023/06/30 02:52:38;;;;;;;8.80;6.90;;;;;;;16.26;73.45;96388.80;112057;1244;22512;-82
2023/06/30 02:55:09;;;;;;;7.10;5.90;;;;;;;16.24;73.49;96388.58;112036;1244;22527;-81
2023/06/30 02:57:37;;;;;;;7.50;6.50;;;;;;;16.22;73.40;96388.49;111985;1244;22488;-81
2023/06/30 03:00:09;;;;;;;7.90;6.50;;;;;;;16.22;73.48;96391.61;111991;1244;43846;-81
2023/06/30 03:02:38;;;;;;;8.70;6.60;;;;;;;16.23;73.49;96395.70;112014;1244;22546;-82
2023/06/30 03:05:08;;;;;;;7.10;6.40;;;;;;;16.22;73.42;96390.98;112025;1244;22553;-82
2023/06/30 03:07:37;;;;;;;8.40;6.50;;;;;;;16.19;73.40;96385.16;112019;1244;22512;-82
2023/06/30 03:10:09;;;;;;;8.70;6.80;;;;;;;16.19;73.40;96385.98;112013;1244;35781;-82
2023/06/30 03:12:38;;;;;;;7.50;6.70;;;;;;;16.19;73.49;96386.80;112053;1244;22518;-81
2023/06/30 03:15:08;;;;;;;8.00;6.30;;;;;;;16.18;73.48;96386.85;112051;1240;22522;-81
2023/06/30 03:17:37;;;;;;;7.60;6.30;;;;;;;16.19;73.53;96389.83;112037;1244;23852;-82
2023/06/30 03:20:12;;;;;;;8.90;6.90;;;;;;;16.18;73.48;96390.77;112022;1244;22813;-81
2023/06/30 03:22:40;;;;;;;6.90;6.20;;;;;;;16.18;73.62;96381.88;112033;1244;25236;-82
2023/06/30 03:25:12;;;;;;;7.90;6.40;;;;;;;16.20;73.61;96387.13;112023;1244;22603;-82
2023/06/30 03:27:40;;;;;;;7.70;6.60;;;;;;;16.21;73.60;96380.11;112018;1244;22544;-81
2023/06/30 03:30:12;;;;;;;7.50;6.00;;;;;;;16.20;73.63;96380.77;112012;1244;23632;-81
2023/06/30 03:32:43;;;;;;;8.10;6.60;;;;;;;16.18;73.59;96376.70;112045;1244;22623;-82
2023/06/30 03:35:12;;;;;;;7.10;6.40;;;;;;;16.17;73.60;96374.05;112045;1233;24240;-81
2023/06/30 03:37:40;;;;;;;7.80;6.60;;;;;;;16.17;73.68;96376.95;112045;1244;23243;-82
2023/06/30 03:40:13;;;;;;;8.10;6.50;;;;;;;16.19;73.79;96376.36;112019;1244;22754;-81
2023/06/30 03:42:42;;;;;;;7.70;6.20;;;;;;;16.21;73.76;96380.27;112065;1244;22526;-81
2023/06/30 03:45:13;;;;;;;7.70;6.70;;;;;;;16.21;73.83;96378.38;111992;1244;23829;-81
2023/06/30 03:47:41;;;;;;;7.00;5.30;;;;;;;16.22;73.83;96382.90;112036;1244;22505;-81
2023/06/30 03:50:11;;;;;;;8.80;6.30;;;;;;;16.24;73.90;96381.91;112009;1244;35864;-82
2023/06/30 03:52:39;;;;;;;8.60;6.70;;;;;;;16.26;73.82;96378.63;112056;1244;22526;-82
2023/06/30 03:55:09;;;;;;;7.90;6.50;;;;;;;16.26;73.75;96380.39;112007;1244;22499;-82
2023/06/30 03:57:39;;;;;;;6.90;6.10;;;;;;;16.27;73.88;96377.90;112037;1244;24191;-81
2023/06/30 04:00:11;;;;;;;8.00;6.20;;;;;;;16.27;73.79;96378.23;112022;1244;22583;-81
2023/06/30 04:02:43;;;;;;;8.50;6.50;;;;;;;16.27;73.80;96378.00;112010;1238;23264;-81
2023/06/30 04:05:13;;;;;;;7.40;6.50;;;;;;;16.28;73.81;96380.76;112031;1244;22499;-82
2023/06/30 04:07:41;;;;;;;7.20;6.20;;;;;;;16.27;73.79;96375.00;112074;1236;22611;-81
2023/06/30 04:10:11;;;;;;;7.40;6.40;;;;;;;16.28;73.87;96372.13;112045;1244;25376;-81
2023/06/30 04:12:39;;;;;;;9.00;6.50;;;;;;;16.30;73.88;96373.06;112056;1244;22491;-81
2023/06/30 04:15:10;;;;;;;6.60;5.90;;;;;;;16.33;73.88;96374.95;112081;1244;22532;-82
2023/06/30 04:17:39;;;;;;;10.40;7.00;;;;;;;16.37;73.96;96371.29;112055;1244;22614;-82
2023/06/30 04:20:10;;;;;;;8.00;6.30;;;;;;;16.40;73.89;96373.86;111983;1244;79488;-82
2023/06/30 04:22:39;;;;;;;7.40;6.70;;;;;;;16.43;73.85;96373.43;112040;1244;25258;-82
2023/06/30 04:25:09;;;;;;;8.20;6.50;;;;;;;16.46;73.89;96376.91;112043;1244;22557;-82
2023/06/30 04:27:39;;;;;;;7.00;6.30;;;;;;;16.52;74.06;96375.16;111977;1244;22578;-81
2023/06/30 04:30:09;;;;;;;7.00;6.30;;;;;;;16.57;73.94;96377.34;112051;1244;22520;-81
2023/06/30 04:32:38;;;;;;;7.30;6.60;;;;;;;16.60;73.84;96376.29;112066;1244;22485;-82
2023/06/30 04:35:08;;;;;;;6.50;5.90;;;;;;;16.64;73.80;96377.20;112074;1244;25224;-82
2023/06/30 04:37:40;;;;;;;7.10;6.40;;;;;;;16.68;73.80;96378.35;112045;1244;22509;-82
2023/06/30 04:40:10;;;;;;;7.30;6.60;;;;;;;16.75;73.93;96377.56;112069;1244;23769;-81
2023/06/30 04:42:38;;;;;;;8.50;6.70;;;;;;;16.81;73.62;96377.41;112049;1244;23947;-82
2023/06/30 04:45:09;;;;;;;7.00;6.30;;;;;;;16.83;73.51;96374.88;112066;1244;22501;-82
2023/06/30 04:47:37;;;;;;;7.50;5.90;;;;;;;16.87;73.54;96372.73;112047;1244;22514;-82
2023/06/30 04:50:07;;;;;;;7.60;6.40;;;;;;;16.90;73.43;96367.98;112044;1244;22532;-82
2023/06/30 04:52:36;;;;;;;7.50;6.70;;;;;;;16.93;73.51;96375.44;112056;1244;22576;-82
2023/06/30 04:55:06;;;;;;;7.40;6.10;;;;;;;16.99;73.54;96373.73;112060;1244;22521;-82
2023/06/30 04:57:35;;;;;;;6.50;5.80;;;;;;;17.05;73.42;96370.33;112085;1244;22545;-82
2023/06/30 05:00:07;;;;;;;7.30;6.60;;;;;;;17.11;73.45;96366.77;112064;1244;32465;-82
2023/06/30 05:02:36;;;;;;;7.60;6.50;;;;;;;17.17;73.55;96364.48;112087;1244;24192;-82
2023/06/30 05:05:06;;;;;;;8.20;6.70;;;;;;;17.26;73.52;96363.27;112078;1244;22451;-82
2023/06/30 05:07:35;;;;;;;6.40;5.80;;;;;;;17.34;73.63;96360.27;112061;1244;22584;-82
2023/06/30 05:10:05;;;;;;;8.70;6.50;;;;;;;17.44;73.55;96356.75;112042;1244;89627;-82
2023/06/30 05:12:32;;;;;;;;;;;;;;;17.53;73.65;96361.42;112059;1244;22490;-82
2023/06/30 05:15:01;;;;;;;7.00;6.30;;;;;;;17.63;73.57;96357.78;112058;1244;22542;-82
2023/06/30 05:17:29;;;;;;;10.30;6.40;;;;;;;17.75;73.58;96352.12;112105;1240;22723;-82
2023/06/30 05:19:59;;;;;;;7.60;6.20;;;;;;;17.92;73.38;96357.69;112043;1241;23504;-82
2023/06/30 05:22:29;;;;;;;9.60;6.50;;;;;;;18.12;73.36;96354.74;112063;1244;23099;-82
2023/06/30 05:24:57;;;;;;;8.00;6.80;;;;;;;18.38;73.71;96355.32;112067;1244;22519;-82
2023/06/30 05:27:26;;;;;;;7.20;6.00;;;;;;;19.12;74.69;96357.38;112081;1244;22512;-82
2023/06/30 05:29:54;;;;;;;6.80;6.10;;;;;;;20.30;73.78;96354.33;112002;1243;46532;-82
2023/06/30 05:32:23;;;;;;;8.90;5.60;;;;;;;21.49;71.75;96352.13;112050;1244;22528;-82
2023/06/30 05:34:51;;;;;;;5.90;5.40;;;;;;;22.50;69.85;96350.02;112052;1244;22493;-83
2023/06/30 05:37:23;;;;;;;6.80;5.80;;;;;;;23.30;67.69;96354.75;112034;1244;22505;-83
2023/06/30 05:39:51;;;;;;;6.50;5.20;;;;;;;23.88;65.88;96355.88;112017;1244;22716;-82
2023/06/30 05:42:20;;;;;;;5.40;4.80;;;;;;;23.85;63.54;96361.17;112085;1244;22654;-82
2023/06/30 05:44:50;;;;;;;5.60;5.00;;;;;;;23.73;63.29;96359.73;112104;1241;24005;-83
2023/06/30 05:47:19;;;;;;;5.40;4.70;;;;;;;24.18;62.98;96356.35;112049;1244;22484;-82
2023/06/30 05:49:48;;;;;;;6.10;5.00;;;;;;;24.15;61.20;96357.86;112063;1244;22629;-83
2023/06/30 05:52:17;;;;;;;6.30;4.60;;;;;;;23.65;60.10;96360.31;112079;1244;22559;-83
2023/06/30 05:54:45;;;;;;;5.90;5.00;;;;;;;23.06;60.08;96360.23;112073;1244;24280;-83
2023/06/30 05:57:14;;;;;;;6.30;5.40;;;;;;;22.54;60.17;96361.95;112102;1244;22487;-83
2023/06/30 05:59:43;;;;;;;6.30;5.30;;;;;;;22.17;61.00;96364.20;112093;1244;22605;-83
2023/06/30 06:02:11;;;;;;;6.90;5.40;;;;;;;22.40;61.81;96362.66;112078;1244;22458;-83
2023/06/30 06:04:40;;;;;;;5.80;5.10;;;;;;;22.62;61.68;96361.62;112095;1244;25294;-83
2023/06/30 06:07:08;;;;;;;6.40;5.30;;;;;;;22.96;62.01;96356.52;112063;1244;22565;-83
2023/06/30 06:09:38;;;;;;;8.20;5.70;;;;;;;23.54;61.39;96357.94;112067;1244;25277;-83
2023/06/30 06:12:10;;;;;;;5.80;5.20;;;;;;;24.20;60.45;96352.50;112063;1244;22523;-83
2023/06/30 06:14:38;;;;;;;6.30;4.50;;;;;;;24.73;59.56;96351.73;112099;1244;22494;-83
2023/06/30 06:17:07;;;;;;;5.70;4.70;;;;;;;25.33;58.80;96349.88;112071;1244;22489;-84
2023/06/30 06:19:36;;;;;;;5.30;4.60;;;;;;;25.68;57.55;96348.42;112071;1244;23731;-83
2023/06/30 06:22:07;;;;;;;4.80;4.30;;;;;;;25.82;56.11;96342.50;112063;1244;22615;-83
2023/06/30 06:24:36;;;;;;;9.40;4.80;;;;;;;25.94;55.41;96345.80;112055;1244;22532;-83
2023/06/30 06:27:06;;;;;;;5.10;4.20;;;;;;;26.18;54.97;96346.54;112069;1244;22524;-83
2023/06/30 06:29:36;;;;;;;4.20;3.80;;;;;;;26.63;55.13;96345.90;112047;1244;23100;-83
2023/06/30 06:32:07;;;;;;;4.70;4.30;;;;;;;27.04;53.91;96344.95;112066;1244;22568;-83
2023/06/30 06:34:38;;;;;;;5.00;4.20;;;;;;;27.29;53.38;96350.80;112083;1244;22500;-83
2023/06/30 06:37:07;;;;;;;4.80;4.20;;;;;;;27.72;53.04;96348.58;112056;1241;25203;-83
2023/06/30 06:39:36;;;;;;;5.80;4.10;;;;;;;28.00;51.86;96349.61;112038;1244;22516;-83
2023/06/30 06:42:06;;;;;;;5.80;3.80;;;;;;;28.08;51.15;96349.73;112084;1244;22555;-83
2023/06/30 06:44:34;;;;;;;5.90;4.40;;;;;;;28.12;50.49;96343.38;112058;1244;22520;-83
2023/06/30 06:47:39;;;;;;;4.70;3.30;;;;;;;28.23;50.06;96344.09;111857;1235;25271;-84
2023/06/30 06:50:09;;;;;;;3.60;3.30;;;;;;;28.30;49.41;96344.70;112045;1244;27216;-83
2023/06/30 06:52:38;;;;;;;4.60;3.70;;;;;;;28.32;49.56;96341.34;112070;1244;25281;-84
2023/06/30 06:55:08;;;;;;;5.00;4.00;;;;;;;28.40;49.12;96342.29;112068;1244;22502;-83
2023/06/30 06:57:36;;;;;;;4.80;3.40;;;;;;;28.49;48.92;96339.97;112072;1244;22601;-84
2023/06/30 07:00:08;;;;;;;4.30;3.80;;;;;;;28.46;48.40;96339.06;112067;1244;22508;-83
2023/06/30 07:02:37;;;;;;;5.00;3.70;;;;;;;28.43;48.27;96342.02;112983;1243;22585;-84
2023/06/30 07:05:10;;;;;;;4.90;3.80;;;;;;;28.60;48.41;96340.59;112043;1244;52329;-83
2023/06/30 07:07:39;;;;;;;5.00;3.70;;;;;;;28.69;47.95;96341.83;111876;1245;25270;-83
2023/06/30 07:10:09;;;;;;;4.40;3.50;;;;;;;28.85;47.72;96338.66;111861;1245;22514;-83
2023/06/30 07:12:38;;;;;;;5.50;3.60;;;;;;;28.90;47.23;96341.14;111840;1243;25341;-83
2023/06/30 07:15:07;;;;;;;;;;;;;;;28.84;47.24;96337.46;111929;1242;42334;-83
2023/06/30 07:17:36;;;;;;;4.30;3.30;;;;;;;28.74;46.55;96340.06;112118;1244;22557;-83
2023/06/30 07:20:09;;;;;;;4.80;3.40;;;;;;;28.58;46.25;96339.73;112120;1244;22561;-83
2023/06/30 07:22:37;;;;;;;4.70;3.60;;;;;;;28.54;46.49;96340.78;112116;1244;22499;-83
2023/06/30 07:25:07;;;;;;;6.10;3.80;;;;;;;28.48;46.57;96334.36;111963;1244;56418;-83
2023/06/30 07:27:38;;;;;;;4.00;3.40;;;;;;;28.30;46.50;96331.54;111854;1245;22516;-84
2023/06/30 07:30:08;;;;;;;5.60;3.70;;;;;;;28.35;46.80;96333.20;111826;1245;22501;-83
2023/06/30 07:32:37;;;;;;;5.10;3.40;;;;;;;28.44;46.76;96330.34;111835;1245;22523;-84
2023/06/30 07:35:07;;;;;;;6.10;3.50;;;;;;;28.55;46.82;96330.17;111871;1244;54058;-84
2023/06/30 07:37:36;;;;;;;4.90;3.10;;;;;;;28.59;46.37;96328.20;112076;1240;22514;-83
2023/06/30 07:40:08;;;;;;;4.40;3.10;;;;;;;28.63;45.72;96327.39;112137;1244;22575;-84
2023/06/30 07:42:38;;;;;;;4.90;3.40;;;;;;;28.61;45.65;96324.75;112068;1244;22510;-84
2023/06/30 07:45:12;;;;;;;5.00;3.60;;;;;;;28.75;45.52;96323.39;112005;1244;56598;-83
2023/06/30 07:47:42;;;;;;;10.30;6.50;;;;;;;28.75;44.62;96317.08;111875;1246;22539;-84
2023/06/30 08:05:52;;;;;;;2.40;2.10;;;;;;;29.08;43.14;96302.19;106038;1307;599588;-83
2023/06/30 08:08:24;;;;;;;2.80;2.30;;;;;;;29.25;42.64;96301.54;108152;1280;285007;-83
2023/06/30 08:10:55;;;;;;;2.70;2.40;;;;;;;29.30;42.05;96298.67;108499;1280;22539;-83
2023/06/30 08:13:30;;;;;;;2.60;2.20;;;;;;;29.28;42.16;96296.19;108459;1271;47829;-82
2023/06/30 08:16:02;;;;;;;4.30;2.40;;;;;;;29.45;42.09;96296.71;108514;1280;22535;-83
2023/06/30 08:18:36;;;;;;;7.10;2.10;;;;;;;29.26;41.62;96301.84;108517;1279;22523;-85
2023/06/30 08:21:08;;;;;;;3.20;2.30;;;;;;;29.04;41.47;96298.49;108461;1280;22535;-85
2023/06/30 08:23:42;;;;;;;2.80;1.90;;;;;;;29.06;41.63;96301.05;108897;1269;36793;-85
2023/06/30 08:26:13;;;;;;;3.60;2.20;;;;;;;29.01;41.17;96295.79;108945;1273;22597;-85
2023/06/30 08:28:45;;;;;;;4.00;2.40;;;;;;;28.76;41.00;96295.46;108960;1270;22521;-85
2023/06/30 08:31:16;;;;;;;3.40;2.20;;;;;;;28.60;41.09;96297.72;108934;1273;22541;-84
2023/06/30 08:33:48;;;;;;;2.40;1.90;;;;;;;28.51;40.92;96302.01;108919;1265;56332;-84
2023/06/30 08:36:20;;;;;;;3.40;2.40;;;;;;;28.34;41.10;96302.93;108936;1265;22519;-85
2023/06/30 08:38:54;;;;;;;3.70;2.50;;;;;;;28.39;41.65;96300.94;108962;1266;24442;-85
2023/06/30 08:41:26;;;;;;;2.60;2.20;;;;;;;28.53;41.75;96298.02;108960;1270;22517;-82
2023/06/30 08:43:59;;;;;;;4.80;2.80;;;;;;;28.58;41.67;96302.58;108898;1266;79327;-82
2023/06/30 08:46:30;;;;;;;4.00;2.40;;;;;;;28.55;41.66;96298.38;108986;1273;23172;-82
2023/06/30 08:49:02;;;;;;;7.00;2.20;;;;;;;28.39;41.41;96292.74;108957;1269;22514;-82
2023/06/30 08:51:35;;;;;;;4.00;2.60;;;;;;;27.99;41.98;96297.67;108988;1269;24245;-82
2023/06/30 08:54:07;;;;;;;4.00;2.30;;;;;;;27.59;42.15;96295.94;108940;1273;24255;-82
2023/06/30 08:56:42;;;;;;;3.30;2.10;;;;;;;27.36;42.62;96297.05;108963;1271;22540;-82
2023/06/30 08:59:15;;;;;;;3.20;2.20;;;;;;;27.20;42.24;96288.16;108987;1273;24212;-83
2023/06/30 09:01:47;;;;;;;3.50;2.40;;;;;;;27.01;42.64;96285.48;108972;1272;24267;-82
2023/06/30 09:04:19;;;;;;;3.30;2.30;;;;;;;27.03;43.40;96284.79;108977;1269;24618;-82
2023/06/30 09:06:52;;;;;;;3.90;2.30;;;;;;;27.00;43.03;96282.15;108898;1272;24266;-82
2023/06/30 09:09:28;;;;;;;2.80;2.10;;;;;;;26.60;42.62;96281.34;108983;1272;22523;-82
2023/06/30 09:12:01;;;;;;;3.40;2.30;;;;;;;26.41;42.99;96279.50;108984;1270;24027;-82
2023/06/30 09:14:39;;;;;;;4.20;2.80;;;;;;;26.19;43.17;96279.23;108844;1272;114121;-82
2023/06/30 09:17:12;;;;;;;3.50;2.40;;;;;;;26.00;43.24;96274.71;108970;1274;22531;-82
2023/06/30 09:19:43;;;;;;;2.70;2.10;;;;;;;25.79;43.39;96275.62;108945;1273;23089;-82
2023/06/30 09:22:17;;;;;;;5.20;2.40;;;;;;;25.62;43.63;96273.37;108941;1272;22522;-82
2023/06/30 09:24:48;;;;;;;3.20;2.40;;;;;;;25.46;43.70;96269.91;108980;1269;24465;-82
2023/06/30 09:27:20;;;;;;;3.20;2.20;;;;;;;25.42;44.21;96270.36;108923;1273;23727;-83
2023/06/30 09:29:59;;;;;;;4.60;2.40;;;;;;;25.66;44.88;96268.35;109051;1267;24220;-82
2023/06/30 09:32:33;;;;;;;6.30;2.50;;;;;;;25.81;44.54;96264.44;108999;1273;22530;-84
2023/06/30 09:35:08;;;;;;;5.10;2.90;;;;;;;25.58;44.32;96261.42;108956;1269;24279;-87
2023/06/30 09:37:45;;;;;;;3.80;2.90;;;;;;;25.21;44.41;96261.76;108988;1273;22563;-86
2023/06/30 09:40:17;;;;;;;3.60;2.40;;;;;;;24.86;44.69;96266.05;109155;1273;22534;-85
2023/06/30 09:42:54;;;;;;;4.00;2.90;;;;;;;24.62;45.10;96264.05;109089;1273;22605;-86
2023/06/30 09:45:25;;;;;;;4.50;3.00;;;;;;;24.50;45.47;96265.21;108886;1270;74489;-83
2023/06/30 09:47:57;;;;;;;2.90;2.60;;;;;;;24.52;45.92;96262.67;109161;1269;22569;-88
2023/06/30 09:50:31;;;;;;;5.30;2.50;;;;;;;24.69;45.73;96263.86;109031;1272;22528;-90
2023/06/30 09:53:04;;;;;;;3.00;2.50;;;;;;;24.85;45.63;96258.84;108968;1269;22588;-90
2023/06/30 09:55:45;;;;;;;3.60;2.60;;;;;;;25.07;46.17;96258.05;108956;1259;57492;-90
2023/06/30 09:58:18;;;;;;;3.60;2.60;;;;;;;25.29;45.82;96253.25;108914;1271;22547;-89
2023/06/30 10:00:51;;;;;;;3.10;2.60;;;;;;;25.35;45.83;96249.73;108944;1266;22530;-92
2023/06/30 10:03:23;;;;;;;3.70;2.80;;;;;;;25.48;46.29;96246.50;108970;1270;22544;-90
2023/06/30 10:05:56;;;;;;;5.40;2.90;;;;;;;25.64;46.48;96242.66;108956;1273;22519;-88
2023/06/30 10:08:31;;;;;;;3.00;2.30;;;;;;;25.71;46.33;96241.38;108925;1272;22655;-87
2023/06/30 10:11:04;;;;;;;3.30;2.60;;;;;;;25.73;45.81;96241.14;108977;1266;23304;-88
2023/06/30 10:13:36;;;;;;;3.40;2.80;;;;;;;25.83;45.67;96239.70;109001;1269;22551;-87
2023/06/30 10:16:09;;;;;;;4.30;2.60;;;;;;;25.80;45.54;96235.66;109080;1273;22560;-87
2023/06/30 10:18:47;;;;;;;3.20;2.60;;;;;;;25.76;45.34;96233.48;109013;1273;22525;-87
2023/06/30 10:21:19;;;;;;;2.90;2.40;;;;;;;25.72;45.54;96230.13;108970;1256;22545;-87
2023/06/30 10:23:53;;;;;;;4.10;2.60;;;;;;;25.77;45.77;96229.98;108929;1272;22528;-87
2023/06/30 10:26:30;;;;;;;2.70;2.50;;;;;;;25.83;45.42;96230.92;108971;1272;25413;-86
2023/06/30 10:29:01;;;;;;;3.70;2.40;;;;;;;25.81;45.05;96232.33;108993;1265;22517;-85
2023/06/30 10:31:33;;;;;;;4.30;2.20;;;;;;;25.91;45.52;96228.77;108926;1272;24216;-87
2023/06/30 10:34:09;;;;;;;3.40;2.40;;;;;;;25.96;45.79;96227.14;108969;1272;23173;-86
2023/06/30 10:36:44;;;;;;;3.60;2.40;;;;;;;25.99;45.33;96226.98;108958;1267;22641;-86
2023/06/30 10:39:17;;;;;;;3.40;2.40;;;;;;;25.92;44.61;96222.73;108970;1273;22679;-86
2023/06/30 10:41:50;;;;;;;3.20;2.60;;;;;;;26.05;45.03;96221.48;108937;1266;22528;-86
2023/06/30 10:44:22;;;;;;;2.80;2.10;;;;;;;26.12;44.66;96220.54;108956;1273;22526;-87
2023/06/30 10:46:57;;;;;;;3.50;2.20;;;;;;;26.01;44.21;96221.86;108944;1274;22563;-88
2023/06/30 10:49:33;;;;;;;2.80;2.10;;;;;;;25.88;44.57;96215.55;108961;1269;25262;-88
2023/06/30 10:52:08;;;;;;;2.40;2.10;;;;;;;25.93;44.44;96215.19;108972;1270;22625;-88
2023/06/30 10:54:50;;;;;;;3.30;2.40;;;;;;;25.98;44.69;96216.66;108986;1270;25294;-91
2023/06/30 10:57:28;;;;;;;4.10;2.20;;;;;;;26.04;44.91;96210.98;109060;1268;22536;-87
2023/06/30 11:00:10;;;;;;;4.40;2.10;;;;;;;26.09;44.38;96209.98;109143;1269;25456;-91
2023/06/30 11:02:49;;;;;;;2.80;2.50;;;;;;;26.10;44.08;96210.52;109029;1269;25545;-90
2023/06/30 11:05:28;;;;;;;4.90;1.90;;;;;;;25.85;43.61;96209.75;109048;1251;22518;-92
2023/06/30 11:08:22;;;;;;;2.80;2.00;;;;;;;25.60;43.42;96203.87;109209;1266;24276;-91
2023/06/30 11:11:02;;;;;;;3.10;1.90;;;;;;;25.41;43.69;96199.10;109214;1272;22536;-91
2023/06/30 11:13:41;;;;;;;3.00;2.20;;;;;;;25.40;45.01;96202.36;109086;1272;22519;-91
2023/06/30 11:16:14;;;;;;;;;;;;;;;25.43;45.29;96207.40;109050;1272;22511;-91
2023/06/30 11:18:59;;;;;;;2.70;2.10;;;;;;;25.43;44.81;96203.36;109090;1272;22536;-90
2023/06/30 11:21:33;;;;;;;2.40;2.10;;;;;;;25.59;44.94;96202.93;109019;1273;22521;-90
2023/06/30 11:24:17;;;;;;;4.70;2.10;;;;;;;25.70;44.74;96200.95;108902;1273;58417;-92
2023/06/30 11:26:49;;;;;;;2.60;2.00;;;;;;;25.81;44.66;96199.04;109004;1273;22603;-91
2023/06/30 11:29:20;;;;;;;3.90;2.10;;;;;;;25.92;44.50;96197.42;108962;1273;22539;-91
2023/06/30 11:31:55;;;;;;;2.70;2.30;;;;;;;26.01;44.42;96192.05;109074;1272;22520;-88
2023/06/30 11:34:28;;;;;;;2.70;2.30;;;;;;;26.08;44.28;96189.81;108999;1274;33851;-89
2023/06/30 11:37:05;;;;;;;3.10;2.20;;;;;;;26.11;44.57;96190.51;109015;1270;23737;-92
2023/06/30 11:39:37;;;;;;;2.50;2.20;;;;;;;26.19;44.70;96186.30;109025;1273;22518;-90
2023/06/30 11:42:09;;;;;;;3.90;2.00;;;;;;;26.19;44.00;96186.92;109276;1273;22521;-92
2023/06/30 11:44:40;;;;;;;3.90;2.10;;;;;;;26.02;43.94;96192.05;109184;1272;59742;-92
2023/06/30 11:47:12;;;;;;;3.10;2.70;;;;;;;25.92;44.49;96193.39;109155;1269;22569;-91
2023/06/30 11:49:44;;;;;;;5.00;2.30;;;;;;;25.89;44.98;96195.02;109197;1266;22528;-91
2023/06/30 11:52:19;;;;;;;3.50;2.20;;;;;;;25.77;44.54;96193.76;109245;1270;22527;-91
2023/06/30 11:54:50;;;;;;;2.70;2.00;;;;;;;25.62;44.22;96193.94;109110;1272;39503;-90
2023/06/30 11:57:22;;;;;;;3.80;2.20;;;;;;;25.48;44.52;96192.67;109044;1266;22523;-89
2023/06/30 11:59:54;;;;;;;4.00;2.20;;;;;;;25.37;44.76;96191.96;109141;1272;22538;-89